Polar Ranger — WDC8652 — position and weather

sailwx.info

Track history (hours):
 
Tides and Currents Weather Stations Pressure Air Temp Water Temp Dewpoint Dewpoint Depression Visibility Wind Speed Wind Dir Waves Ship Positions

Polar Ranger

Owner: Dunlap Towing Co., LaConner, WA. More information available from US FCC via Universal Licensing System and Coast Guard Vessel Documentation Center.

Last reported at 2014-Nov-11 19:33 UTC. Time now 2014-Nov-23 08:41 UTC.
Position N 47°58' W 122°15'.
Warning: this ship's position is 11 days out of date.

Type: Tow > 200 m length. MMSI: 367090860.

Date/timePositionNaut miles runAvg speedWind from/ knotsBaromVisibWave heightAir tempDewpointWater temp
2014-Nov-11 19:33N 47°58' W 122°15'711.8
2014-Nov-11 18:57N 47°53' W 122°22'513.6
2014-Nov-11 18:33N 47°48' W 122°26'0 9.9
2014-Nov-11 18:33N 47°48' W 122°26'1312.7
2014-Nov-11 17:34N 47°36' W 122°22'0 5.9
2014-Nov-11 17:33N 47°36' W 122°22'1 0.8
2014-Nov-11 16:33N 47°36' W 122°23'0 0.0
2014-Nov-11 16:32N 47°36' W 122°23'1 1.2
2014-Nov-11 15:34N 47°37' W 122°25'0 4.5
2014-Nov-11 15:32N 47°37' W 122°25'6 5.7
2014-Nov-11 14:34N 47°42' W 122°28'0 4.9
2014-Nov-11 14:32N 47°42' W 122°28'5 5.3
2014-Nov-11 13:34N 47°47' W 122°28'0 4.0
2014-Nov-11 13:32N 47°47' W 122°28'4 4.1
2014-Nov-11 12:34N 47°51' W 122°29'0 3.9
2014-Nov-11 12:32N 47°52' W 122°29'5 5.2
2014-Nov-11 11:33N 47°56' W 122°32'0 5.8
2014-Nov-11 11:31N 47°56' W 122°32'5 5.3
2014-Nov-11 10:31N 48°00' W 122°38'7 5.4
2014-Nov-11 09:15N 48°07' W 122°41'15 4.1
2014-Nov-11 05:33N 48°22' W 122°46'5 5.5
2014-Nov-11 04:34N 48°27' W 122°45'8 8.2
2014-Nov-11 03:34N 48°35' W 122°46'8 8.1
2014-Nov-11 02:34N 48°43' W 122°46'8 8.0
2014-Nov-11 01:33N 48°48' W 122°55'8 8.0
2014-Nov-11 00:33N 48°52' W 123°06'8 7.6
2014-Nov-10 23:34N 48°57' W 123°14'7 7.1
2014-Nov-10 22:34N 49°02' W 123°22'7 6.9
2014-Nov-10 21:33N 49°07' W 123°29'7 7.4
2014-Nov-10 20:34N 49°13' W 123°37'7 7.5
2014-Nov-10 19:33N 49°18' W 123°45'7 7.2
2014-Nov-10 18:33N 49°23' W 123°53'8 7.4
2014-Nov-10 17:32N 49°26' W 124°03'7 7.1
2014-Nov-10 16:32N 49°31' W 124°12'7 6.6
2014-Nov-10 15:32N 49°34' W 124°21'7 6.5
2014-Nov-10 14:32N 49°37' W 124°29'7 7.1
2014-Nov-10 13:32N 49°42' W 124°38'100 5.2
2014-Nov-09 18:12N 50°37' W 126°49'4 5.6
2014-Nov-09 17:31N 50°40' W 126°51'8 7.6
2014-Nov-09 16:32N 50°45' W 127°01'7 6.8
2014-Nov-09 15:33N 50°49' W 127°09'7 6.7
2014-Nov-09 14:33N 50°52' W 127°18'6 6.1
2014-Nov-09 13:33N 50°56' W 127°26'6 6.4
2014-Nov-09 12:33N 50°60' W 127°35'6 6.4
2014-Nov-09 11:33N 51°04' W 127°42'6 6.2
2014-Nov-09 10:33N 51°08' W 127°49'  
2014-Nov-07 03:32N 54°08' W 130°24'6 6.0
2014-Nov-07 02:33N 54°13' W 130°29'6 6.3
2014-Nov-07 01:34N 54°18' W 130°35'6 5.9
2014-Nov-07 00:33N 54°24' W 130°38'7 6.7
2014-Nov-06 23:33N 54°30' W 130°42'7 6.9
2014-Nov-06 22:33N 54°37' W 130°44'  
Track history (hours):
 
Tides and Currents Weather Stations Pressure Air Temp Water Temp Dewpoint Dewpoint Depression Visibility Wind Speed Wind Dir Waves Ship Positions

Polar Ranger

Owner: Dunlap Towing Co., LaConner, WA. More information available from US FCC via Universal Licensing System and Coast Guard Vessel Documentation Center.

Last reported at 2014-Nov-11 19:33 UTC. Time now 2014-Nov-23 08:41 UTC.
Position N 47°58' W 122°15'.
Warning: this ship's position is 11 days out of date.

Type: Tow > 200 m length. MMSI: 367090860.

Date/timePositionNaut miles runAvg speedWind from/ knotsBaromVisibWave heightAir tempDewpointWater temp
2014-Nov-11 19:33N 47°58' W 122°15'711.8
2014-Nov-11 18:57N 47°53' W 122°22'513.6
2014-Nov-11 18:33N 47°48' W 122°26'0 9.9
2014-Nov-11 18:33N 47°48' W 122°26'1312.7
2014-Nov-11 17:34N 47°36' W 122°22'0 5.9
2014-Nov-11 17:33N 47°36' W 122°22'1 0.8
2014-Nov-11 16:33N 47°36' W 122°23'0 0.0
2014-Nov-11 16:32N 47°36' W 122°23'1 1.2
2014-Nov-11 15:34N 47°37' W 122°25'0 4.5
2014-Nov-11 15:32N 47°37' W 122°25'6 5.7
2014-Nov-11 14:34N 47°42' W 122°28'0 4.9
2014-Nov-11 14:32N 47°42' W 122°28'5 5.3
2014-Nov-11 13:34N 47°47' W 122°28'0 4.0
2014-Nov-11 13:32N 47°47' W 122°28'4 4.1
2014-Nov-11 12:34N 47°51' W 122°29'0 3.9
2014-Nov-11 12:32N 47°52' W 122°29'5 5.2
2014-Nov-11 11:33N 47°56' W 122°32'0 5.8
2014-Nov-11 11:31N 47°56' W 122°32'5 5.3
2014-Nov-11 10:31N 48°00' W 122°38'7 5.4
2014-Nov-11 09:15N 48°07' W 122°41'15 4.1
2014-Nov-11 05:33N 48°22' W 122°46'5 5.5
2014-Nov-11 04:34N 48°27' W 122°45'8 8.2
2014-Nov-11 03:34N 48°35' W 122°46'8 8.1
2014-Nov-11 02:34N 48°43' W 122°46'8 8.0
2014-Nov-11 01:33N 48°48' W 122°55'8 8.0
2014-Nov-11 00:33N 48°52' W 123°06'8 7.6
2014-Nov-10 23:34N 48°57' W 123°14'7 7.1
2014-Nov-10 22:34N 49°02' W 123°22'7 6.9
2014-Nov-10 21:33N 49°07' W 123°29'7 7.4
2014-Nov-10 20:34N 49°13' W 123°37'7 7.5
2014-Nov-10 19:33N 49°18' W 123°45'7 7.2
2014-Nov-10 18:33N 49°23' W 123°53'8 7.4
2014-Nov-10 17:32N 49°26' W 124°03'7 7.1
2014-Nov-10 16:32N 49°31' W 124°12'7 6.6
2014-Nov-10 15:32N 49°34' W 124°21'7 6.5
2014-Nov-10 14:32N 49°37' W 124°29'7 7.1
2014-Nov-10 13:32N 49°42' W 124°38'100 5.2
2014-Nov-09 18:12N 50°37' W 126°49'4 5.6
2014-Nov-09 17:31N 50°40' W 126°51'8 7.6
2014-Nov-09 16:32N 50°45' W 127°01'7 6.8
2014-Nov-09 15:33N 50°49' W 127°09'7 6.7
2014-Nov-09 14:33N 50°52' W 127°18'6 6.1
2014-Nov-09 13:33N 50°56' W 127°26'6 6.4
2014-Nov-09 12:33N 50°60' W 127°35'6 6.4
2014-Nov-09 11:33N 51°04' W 127°42'6 6.2
2014-Nov-09 10:33N 51°08' W 127°49'  
2014-Nov-07 03:32N 54°08' W 130°24'6 6.0
2014-Nov-07 02:33N 54°13' W 130°29'6 6.3
2014-Nov-07 01:34N 54°18' W 130°35'6 5.9
2014-Nov-07 00:33N 54°24' W 130°38'7 6.7
2014-Nov-06 23:33N 54°30' W 130°42'7 6.9
2014-Nov-06 22:33N 54°37' W 130°44'  

Dump ship's entire track history